MGGTMGSJ

Guest
Details From MGGT - La Aurora
To MGSJ - SAN JOSE
Flight Number -
Tags generated
Created
Modified
Stats Distance 44 nm / 81 km
Max Altitude 100 ft / 30 m
Waypoints 3
Social Downloads 1
Likes 0
Share VATSIM

Download

Looking for another format? Having issues loading an existing format? Contact us
Advertisement - Login to hide

Notes

Basic altitude profile: - Ascent Rate: 6500ft/min - Ascent Speed: 190kts - Cruise Altitude: 35000ft - Cruise Speed: 420kts - Descent Rate: 1500ft/min - Descent Speed: 250kts Options: - Use NATs: yes - Use PACOTS: yes - Use low airways: yes - Use high airways: yes

Route

MGGT AUR MGSJ

ID Type Via Altitude Latitude Longitude Leg Dist Tot Dist Heading (true) Name
O MGGT APT - 0 ft / 0 m 14.58327˚ -90.52747˚ - 0 nm - La Aurora
AUR VOR - 100 ft / 30 m 14.59106˚ -90.52625˚ 0 nm 0 nm 9° / 9° LA AURORA VOR-DME
O MGSJ APT - 0 ft / 0 m 13.93619˚ -90.83583˚ 43 nm 43 nm 205° / 205° SAN JOSE

Altitude Profile

Advertisement - Login to hide

MGGT

Details ICAO MGGT (GUA)
Name La Aurora
Region Guatemala
Timezone America/Guatemala (UTC-6.0)
Stats Elevation 4,952 ft / 1,509 m (AMSL)
Location 14.583272° -90.527473°
Runways 1
Magnetic Variation 1.009° E

METAR

MGGT 261200Z 00000KT 5000 BR FEW005 SCT014 BKN080 18/17 Q1022 A3018

Decode

TAF

MGGT 2612/2712 00000KT 9999 SCT014 SCT090 TX26/2620Z TN18/2612Z TEMPO 2612/2614 5000 BR -DZ BKN012 BKN080 BECMG 2615/2617 18008KT SCT018 TEMPO 2620/2712 7000 RA BKN014 OVC080 PROB40 2621/2702 TSRA SCT018TCU FEW025CB BECMG 2702/2704 00000KT SCT014 BKN090

Decode

Departure Runways

ID Width Length Bearing (true) Bearing (mag) Surface Threshold Offset Overrun Length
01 196 ft / 60 m 9,841 ft / 3,000 m 17.29° 16.28° Asphalt 0 ft / 0 m 0 ft / 0 m
19 196 ft / 60 m 9,841 ft / 3,000 m 197.29° 196.28° Asphalt 722 ft / 220 m 0 ft / 0 m

MGSJ

Details ICAO MGSJ
Name SAN JOSE
Region Guatemala
Timezone America/Guatemala (UTC-6.0)
Stats Elevation 29 ft / 9 m (AMSL)
Location 13.936191° -90.835832°
Runways 1
Magnetic Variation 1.260° E

METAR

MGSJ 261200Z 00000KT 8000 BKN080 SCT090 24/23 Q1010 A2983 BR

Decode

TAF

MGSJ 2612/2712 00000KT 8000 NSC TX32/2620Z TN25/2612Z BECMG 2615/2617 21010KT FEW018 TEMPO 2620/2702 TSRA SCT020TCU FEW025CB BECMG 2702/2704 00000KT FEW016

Decode

Destination Runways

ID Width Length Bearing (true) Bearing (mag) Surface Threshold Offset Overrun Length
15 150 ft / 46 m 6,639 ft / 2,024 m 156.87° 155.61° Asphalt 0 ft / 0 m 0 ft / 0 m
33 150 ft / 46 m 6,639 ft / 2,024 m 336.87° 335.61° Asphalt 0 ft / 0 m 0 ft / 0 m

Popular Alternatives